Time;durP1;ratioP1;P1;durP2;ratioP2;P2;SDS_P1;SDS_P2;PMS_P1;PMS_P2;Temp;Humidity;BMP_temperature;BMP_pressure;BME280_temperature;BME280_humidity;BME280_pressure;Samples;Min_cycle;Max_cycle;Signal;HPM_P1;HPM_P2
2023/07/28 00:00:27;;;;;;;5.00;2.00;;;;;;;15.69;100.00;99664.20;105719;1257;72490;-44
2023/07/28 00:02:55;;;;;;;2.50;2.10;;;;;;;15.66;100.00;99656.52;105539;1261;60762;-44
2023/07/28 00:05:22;;;;;;;7.10;2.10;;;;;;;15.64;100.00;99648.98;105614;1257;60336;-44
2023/07/28 00:07:49;;;;;;;2.80;2.60;;;;;;;15.63;100.00;99643.66;105667;1257;72847;-44
2023/07/28 00:10:16;;;;;;;2.90;2.70;;;;;;;15.62;100.00;99635.18;105739;1256;65316;-44
2023/07/28 00:12:42;;;;;;;9.20;3.00;;;;;;;15.61;100.00;99621.19;105598;1260;72692;-44
2023/07/28 00:15:09;;;;;;;7.00;3.30;;;;;;;15.59;100.00;99610.29;105586;1262;61867;-44
2023/07/28 00:17:36;;;;;;;8.90;3.90;;;;;;;15.58;100.00;99604.77;105665;1256;60493;-44
2023/07/28 00:20:04;;;;;;;4.00;3.70;;;;;;;15.57;100.00;99599.81;105459;1257;72754;-44
2023/07/28 00:22:32;;;;;;;6.40;4.20;;;;;;;15.54;100.00;99594.40;105648;1260;65578;-44
2023/07/28 00:24:58;;;;;;;8.10;4.10;;;;;;;15.51;100.00;99592.10;105567;1259;72599;-44
2023/07/28 00:27:25;;;;;;;4.00;3.70;;;;;;;15.50;100.00;99593.55;106040;1256;61865;-43
2023/07/28 00:29:52;;;;;;;4.40;3.60;;;;;;;15.48;100.00;99594.00;105396;1256;60268;-43
2023/07/28 00:32:19;;;;;;;6.90;3.00;;;;;;;15.46;100.00;99593.42;105483;1261;73031;-43
2023/07/28 00:34:46;;;;;;;3.30;3.10;;;;;;;15.43;100.00;99593.04;105636;1261;65376;-43
2023/07/28 00:37:13;;;;;;;3.70;3.40;;;;;;;15.41;100.00;99589.17;105540;1259;72781;-44
2023/07/28 00:39:40;;;;;;;6.60;3.50;;;;;;;15.39;100.00;99579.16;105614;1260;61838;-43
2023/07/28 00:42:09;;;;;;;4.00;3.30;;;;;;;15.40;100.00;99574.77;105571;1257;60285;-43
2023/07/28 00:44:36;;;;;;;2.80;2.60;;;;;;;15.40;100.00;99564.16;105407;1259;73374;-44
2023/07/28 00:47:03;;;;;;;3.70;3.10;;;;;;;15.39;100.00;99554.98;105427;1262;65524;-44
2023/07/28 00:49:30;;;;;;;10.80;3.50;;;;;;;15.37;100.00;99545.53;105711;1257;72451;-43
2023/07/28 00:51:57;;;;;;;6.30;3.60;;;;;;;15.35;100.00;99546.33;105504;1260;61976;-44
2023/07/28 00:54:24;;;;;;;6.70;3.40;;;;;;;15.35;100.00;99535.39;105412;1259;60126;-43
2023/07/28 00:56:52;;;;;;;9.30;3.40;;;;;;;15.35;100.00;99539.77;105843;1262;73117;-44
2023/07/28 00:59:19;;;;;;;3.90;3.60;;;;;;;15.33;100.00;99540.04;105593;1260;65493;-44
2023/07/28 01:01:45;;;;;;;4.30;3.40;;;;;;;15.31;100.00;99537.86;105509;1260;72733;-44
2023/07/28 01:04:13;;;;;;;6.80;3.90;;;;;;;15.30;100.00;99538.79;105409;1261;62034;-45
2023/07/28 01:06:50;;;;;;;4.80;4.00;;;;;;;15.31;100.00;99538.20;105488;1256;60256;-43
2023/07/28 01:09:18;;;;;;;4.10;3.70;;;;;;;15.32;100.00;99539.91;105459;1258;71783;-44
2023/07/28 01:11:56;;;;;;;6.20;3.90;;;;;;;15.30;100.00;99534.78;105336;1257;64256;-43
2023/07/28 01:14:23;;;;;;;4.70;4.20;;;;;;;15.30;100.00;99532.55;105777;1256;72678;-44
2023/07/28 01:16:50;;;;;;;7.60;3.90;;;;;;;15.28;100.00;99528.29;105493;1259;60904;-44
2023/07/28 01:19:18;;;;;;;3.70;3.10;;;;;;;15.28;100.00;99523.44;105425;1256;60329;-43
2023/07/28 01:21:48;;;;;;;3.90;3.60;;;;;;;15.27;100.00;99511.48;105772;1261;73059;-43
2023/07/28 01:24:14;;;;;;;4.00;3.70;;;;;;;15.25;100.00;99508.13;105713;1256;65219;-43
2023/07/28 01:26:43;;;;;;;4.00;3.50;;;;;;;15.22;100.00;99506.71;105539;1259;73441;-43
2023/07/28 01:29:10;;;;;;;6.10;4.30;;;;;;;15.19;100.00;99506.13;105661;1261;61848;-43
2023/07/28 01:31:38;;;;;;;4.40;4.00;;;;;;;15.19;100.00;99505.69;105442;1256;60236;-44
2023/07/28 01:34:05;;;;;;;7.60;4.40;;;;;;;15.19;100.00;99514.67;105654;1257;73062;-44
2023/07/28 01:36:32;;;;;;;7.20;4.00;;;;;;;15.20;100.00;99516.56;105509;1256;65511;-44
2023/07/28 01:39:00;;;;;;;6.40;3.90;;;;;;;15.20;100.00;99519.46;105776;1262;71445;-44
2023/07/28 01:41:27;;;;;;;4.40;3.90;;;;;;;15.22;100.00;99515.56;105484;1262;61956;-44
2023/07/28 01:43:55;;;;;;;5.50;4.30;;;;;;;15.22;100.00;99508.56;105540;1261;60583;-43
2023/07/28 01:46:22;;;;;;;4.30;4.00;;;;;;;15.23;100.00;99498.67;105556;1257;72919;-44
2023/07/28 01:48:49;;;;;;;7.10;4.30;;;;;;;15.22;100.00;99499.89;105388;1262;65300;-44
2023/07/28 01:51:16;;;;;;;4.10;3.70;;;;;;;15.23;100.00;99496.58;105539;1262;72325;-44
2023/07/28 01:53:43;;;;;;;7.60;4.50;;;;;;;15.22;100.00;99496.44;105579;1261;62734;-44
2023/07/28 01:56:11;;;;;;;9.50;4.20;;;;;;;15.21;100.00;99498.05;105658;1258;60121;-44
2023/07/28 01:58:39;;;;;;;15.00;4.10;;;;;;;15.20;100.00;99506.95;105411;1262;73086;-44
2023/07/28 02:01:07;;;;;;;5.70;4.00;;;;;;;15.20;100.00;99510.79;105490;1262;65516;-44
2023/07/28 02:03:34;;;;;;;5.30;3.90;;;;;;;15.21;100.00;99519.77;105555;1256;72598;-44
2023/07/28 02:06:01;;;;;;;4.20;3.80;;;;;;;15.22;100.00;99517.82;105677;1262;62164;-44
2023/07/28 02:08:28;;;;;;;4.30;4.00;;;;;;;15.22;100.00;99524.23;105985;1253;60281;-44
2023/07/28 02:10:55;;;;;;;5.60;3.70;;;;;;;15.23;100.00;99530.81;105853;1256;73055;-44
2023/07/28 02:13:24;;;;;;;5.00;4.10;;;;;;;15.23;100.00;99530.80;105738;1256;65556;-44
2023/07/28 02:15:53;;;;;;;3.90;3.60;;;;;;;15.23;100.00;99534.95;105864;1253;73979;-44
2023/07/28 02:18:20;;;;;;;4.70;3.80;;;;;;;15.23;100.00;99537.77;105980;1256;60844;-44
2023/07/28 02:20:50;;;;;;;8.70;4.00;;;;;;;15.23;100.00;99541.77;105703;1253;60352;-43
2023/07/28 02:23:17;;;;;;;4.10;3.90;;;;;;;15.24;100.00;99541.18;105972;1257;72995;-44
2023/07/28 02:25:44;;;;;;;4.90;3.60;;;;;;;15.25;100.00;99541.14;105710;1256;65509;-44
2023/07/28 02:28:11;;;;;;;4.80;4.40;;;;;;;15.26;100.00;99538.66;105833;1253;72742;-44
2023/07/28 02:30:38;;;;;;;4.40;4.00;;;;;;;15.25;100.00;99535.94;105742;1256;61845;-44
2023/07/28 02:33:06;;;;;;;11.10;4.60;;;;;;;15.23;100.00;99530.44;105965;1253;60313;-44
2023/07/28 02:35:33;;;;;;;4.50;4.20;;;;;;;15.23;100.00;99529.91;106117;1256;72997;-44
2023/07/28 02:37:59;;;;;;;4.70;4.40;;;;;;;15.23;100.00;99524.57;105844;1256;65179;-44
2023/07/28 02:40:26;;;;;;;6.00;4.80;;;;;;;15.23;100.00;99524.20;106013;1253;72625;-44
2023/07/28 02:42:54;;;;;;;5.90;5.30;;;;;;;15.23;100.00;99522.09;105892;1256;61866;-44
2023/07/28 02:45:21;;;;;;;5.10;4.60;;;;;;;15.22;100.00;99521.98;105802;1253;60286;-43
2023/07/28 02:47:47;;;;;;;7.60;5.20;;;;;;;15.21;100.00;99526.71;105722;1256;72841;-43
2023/07/28 02:50:14;;;;;;;5.80;5.40;;;;;;;15.21;100.00;99526.21;105751;1256;65397;-44
2023/07/28 02:52:41;;;;;;;5.90;5.10;;;;;;;15.22;100.00;99530.70;105872;1253;72640;-43
2023/07/28 02:55:08;;;;;;;6.10;5.20;;;;;;;15.23;100.00;99535.34;106061;1256;62033;-44
2023/07/28 02:57:35;;;;;;;5.80;5.10;;;;;;;15.23;100.00;99527.48;105601;1253;59822;-43
2023/07/28 03:00:05;;;;;;;5.80;5.40;;;;;;;15.24;100.00;99518.58;105839;1254;73054;-43
2023/07/28 03:02:32;;;;;;;5.80;5.20;;;;;;;15.25;100.00;99511.77;105886;1259;64260;-43
2023/07/28 03:04:59;;;;;;;5.40;4.90;;;;;;;15.24;100.00;99512.14;105879;1253;71422;-44
2023/07/28 03:07:48;;;;;;;5.00;4.80;;;;;;;15.27;100.00;99510.61;105977;1256;62134;-43
2023/07/28 03:10:18;;;;;;;6.80;5.20;;;;;;;15.29;100.00;99504.96;105984;1253;60186;-45
2023/07/28 03:12:45;;;;;;;6.20;4.70;;;;;;;15.30;100.00;99509.81;105846;1256;73075;-44
2023/07/28 03:15:12;;;;;;;7.30;5.30;;;;;;;15.30;100.00;99511.02;105776;1257;65260;-44
2023/07/28 03:17:39;;;;;;;7.60;5.00;;;;;;;15.30;100.00;99514.50;105784;1253;72514;-44
2023/07/28 03:20:07;;;;;;;10.20;5.90;;;;;;;15.30;100.00;99519.55;106037;1252;61724;-44
2023/07/28 03:22:36;;;;;;;9.30;5.70;;;;;;;15.30;100.00;99520.21;106000;1253;60534;-44
2023/07/28 03:25:03;;;;;;;9.20;5.80;;;;;;;15.31;100.00;99516.15;105806;1256;73804;-44
2023/07/28 03:27:30;;;;;;;5.70;5.30;;;;;;;15.33;100.00;99518.82;106115;1253;64260;-44
2023/07/28 03:29:57;;;;;;;6.00;5.40;;;;;;;15.35;100.00;99519.23;105875;1254;71657;-45
2023/07/28 03:32:24;;;;;;;6.50;5.60;;;;;;;15.35;100.00;99521.86;106074;1256;60935;-44
2023/07/28 03:34:51;;;;;;;6.20;5.70;;;;;;;15.37;100.00;99527.65;105892;1253;60545;-43
2023/07/28 03:37:19;;;;;;;6.40;5.80;;;;;;;15.40;100.00;99529.05;105812;1253;73741;-45
2023/07/28 03:39:46;;;;;;;6.10;5.60;;;;;;;15.43;100.00;99518.66;105824;1253;65531;-44
2023/07/28 03:42:13;;;;;;;6.20;5.20;;;;;;;15.43;100.00;99513.23;105793;1253;72615;-43
2023/07/28 03:44:41;;;;;;;5.70;5.30;;;;;;;15.43;100.00;99500.57;105829;1253;61959;-43
2023/07/28 03:47:08;;;;;;;5.60;5.30;;;;;;;15.43;100.00;99496.24;105729;1253;60476;-44
2023/07/28 03:49:35;;;;;;;7.90;5.40;;;;;;;15.44;100.00;99491.15;105896;1255;73799;-44
2023/07/28 03:52:03;;;;;;;5.40;4.70;;;;;;;15.45;100.00;99484.12;106064;1256;65450;-44
2023/07/28 03:54:32;;;;;;;4.80;4.60;;;;;;;15.48;100.00;99482.88;105772;1253;72677;-43
2023/07/28 03:56:59;;;;;;;8.70;4.90;;;;;;;15.51;100.00;99479.95;105770;1253;62339;-44
2023/07/28 03:59:26;;;;;;;5.60;4.80;;;;;;;15.51;100.00;99482.35;105766;1253;60554;-45
2023/07/28 04:01:53;;;;;;;4.50;4.20;;;;;;;15.54;100.00;99491.66;105758;1256;74215;-44
2023/07/28 04:04:20;;;;;;;4.20;3.90;;;;;;;15.55;100.00;99492.83;105862;1256;65473;-44
2023/07/28 04:06:53;;;;;;;4.80;4.00;;;;;;;15.58;100.00;99496.64;105754;1253;72674;-44
2023/07/28 04:09:20;;;;;;;3.50;3.20;;;;;;;15.61;100.00;99497.83;105905;1253;61954;-44
2023/07/28 04:11:47;;;;;;;3.00;2.80;;;;;;;15.62;100.00;99498.66;105869;1254;60447;-44
2023/07/28 04:14:14;;;;;;;3.90;2.40;;;;;;;15.63;100.00;99502.79;105861;1256;73786;-44
2023/07/28 04:16:42;;;;;;;3.70;2.10;;;;;;;15.63;100.00;99503.83;105855;1258;65575;-44
2023/07/28 04:19:08;;;;;;;2.00;1.80;;;;;;;15.66;100.00;99503.84;105817;1259;72521;-44
2023/07/28 04:21:39;;;;;;;1.70;1.70;;;;;;;15.68;100.00;99507.43;105896;1255;62061;-43
2023/07/28 04:24:09;;;;;;;2.20;1.70;;;;;;;15.69;100.00;99507.53;105700;1253;60505;-44
2023/07/28 04:26:39;;;;;;;1.70;1.60;;;;;;;15.70;100.00;99507.97;105830;1256;72477;-44
2023/07/28 04:29:06;;;;;;;1.40;1.30;;;;;;;15.72;100.00;99505.81;105753;1257;65240;-44
2023/07/28 04:31:34;;;;;;;1.30;1.20;;;;;;;15.71;100.00;99504.09;105814;1256;72666;-44
2023/07/28 04:34:05;;;;;;;1.50;1.20;;;;;;;15.71;100.00;99502.88;105634;1259;60503;-44
2023/07/28 04:36:54;;;;;;;1.00;1.00;;;;;;;15.71;100.00;99505.13;105755;1257;60412;-44
2023/07/28 04:39:23;;;;;;;1.00;0.90;;;;;;;15.72;100.00;99506.33;105957;1253;74040;-44
2023/07/28 04:41:51;;;;;;;0.90;0.90;;;;;;;15.72;100.00;99514.10;105760;1255;65375;-44
2023/07/28 04:44:20;;;;;;;1.80;1.00;;;;;;;15.72;100.00;99516.91;105806;1253;72661;-44
2023/07/28 04:46:47;;;;;;;1.20;1.10;;;;;;;15.74;100.00;99528.63;105977;1259;61970;-44
2023/07/28 04:49:14;;;;;;;0.80;0.80;;;;;;;15.74;100.00;99531.76;105684;1257;60411;-44
2023/07/28 04:52:13;;;;;;;4.90;2.40;;;;;;;15.72;100.00;99529.45;106157;1257;73961;-44
2023/07/28 04:54:53;;;;;;;2.80;2.40;;;;;;;15.74;100.00;99516.80;105812;1257;65272;-44
2023/07/28 04:57:20;;;;;;;1.80;1.70;;;;;;;15.75;100.00;99516.73;105784;1256;72666;-44
2023/07/28 04:59:47;;;;;;;1.40;1.40;;;;;;;15.75;100.00;99526.14;105770;1259;61991;-44
2023/07/28 05:02:14;;;;;;;1.90;1.40;;;;;;;15.73;100.00;99525.88;105884;1254;60446;-44
2023/07/28 05:04:41;;;;;;;1.00;1.00;;;;;;;15.73;100.00;99525.55;105920;1256;73632;-44
2023/07/28 05:07:08;;;;;;;2.20;1.30;;;;;;;15.74;100.00;99524.61;105738;1258;65200;-44
2023/07/28 05:09:35;;;;;;;2.70;1.50;;;;;;;15.74;100.00;99526.70;105883;1256;72715;-44
2023/07/28 05:12:04;;;;;;;1.20;1.20;;;;;;;15.77;100.00;99530.72;106016;1256;61939;-43
2023/07/28 05:14:38;;;;;;;1.20;1.10;;;;;;;15.82;100.00;99540.59;105809;1256;60486;-44
2023/07/28 05:17:06;;;;;;;2.20;1.60;;;;;;;15.85;100.00;99542.52;105657;1259;73714;-45
2023/07/28 05:19:51;;;;;;;1.80;1.70;;;;;;;15.88;100.00;99540.95;105766;1257;65459;-44
2023/07/28 05:22:44;;;;;;;4.50;2.40;;;;;;;15.84;100.00;99545.67;105744;1258;70458;-45
2023/07/28 05:25:11;;;;;;;3.60;3.00;;;;;;;15.84;100.00;99558.54;105779;1257;61970;-43
2023/07/28 05:27:41;;;;;;;4.20;2.90;;;;;;;15.85;100.00;99560.09;105724;1257;60452;-43
2023/07/28 05:30:09;;;;;;;2.50;2.20;;;;;;;15.80;100.00;99557.90;105850;1253;73828;-44
2023/07/28 05:32:36;;;;;;;2.00;1.90;;;;;;;15.76;100.00;99560.70;105913;1254;65481;-45
2023/07/28 05:35:15;;;;;;;2.60;2.40;;;;;;;15.74;100.00;99559.59;105868;1257;72714;-43
2023/07/28 05:37:41;;;;;;;2.30;2.20;;;;;;;15.70;100.00;99558.77;105806;1253;61826;-44
2023/07/28 05:40:09;;;;;;;3.80;3.30;;;;;;;15.67;100.00;99558.26;105899;1253;60646;-44
2023/07/28 05:42:36;;;;;;;3.90;3.00;;;;;;;15.60;100.00;99558.06;105754;1253;74811;-43
2023/07/28 05:45:04;;;;;;;2.30;2.20;;;;;;;15.57;100.00;99557.41;105773;1256;65468;-46
2023/07/28 05:47:32;;;;;;;2.90;2.00;;;;;;;15.55;100.00;99562.16;105672;1259;72809;-45
2023/07/28 05:49:59;;;;;;;3.00;2.20;;;;;;;15.52;100.00;99568.04;105872;1257;61943;-46
2023/07/28 05:52:29;;;;;;;5.60;2.00;;;;;;;15.49;100.00;99572.71;105697;1253;60349;-44
2023/07/28 05:54:57;;;;;;;2.40;2.20;;;;;;;15.45;100.00;99578.31;105776;1256;73921;-44
2023/07/28 05:57:26;;;;;;;5.20;3.10;;;;;;;15.43;100.00;99580.52;105710;1259;65578;-44
2023/07/28 05:59:56;;;;;;;5.50;2.40;;;;;;;15.43;100.00;99581.23;105790;1257;71079;-44
2023/07/28 06:02:23;;;;;;;3.30;2.90;;;;;;;15.43;100.00;99582.45;105789;1257;61882;-44
2023/07/28 06:04:55;;;;;;;2.70;1.90;;;;;;;15.43;100.00;99584.70;105845;1253;60543;-44
2023/07/28 06:07:22;;;;;;;4.30;2.30;;;;;;;15.40;100.00;99585.39;105731;1258;73796;-44
2023/07/28 06:09:49;;;;;;;1.90;1.70;;;;;;;15.39;100.00;99583.70;105821;1256;65342;-44
2023/07/28 06:12:16;;;;;;;4.50;1.80;;;;;;;15.41;100.00;99583.76;105909;1266;72726;-45
2023/07/28 06:14:43;;;;;;;7.70;1.50;;;;;;;15.42;100.00;99583.22;105912;1256;61856;-44
2023/07/28 06:17:12;;;;;;;2.80;1.90;;;;;;;15.42;100.00;99584.41;105804;1254;60557;-45
2023/07/28 06:19:39;;;;;;;4.50;2.90;;;;;;;15.44;100.00;99591.23;105642;1255;73679;-44
2023/07/28 06:22:06;;;;;;;4.30;2.20;;;;;;;15.47;100.00;99593.17;105770;1254;65461;-43
2023/07/28 06:24:38;;;;;;;1.80;1.70;;;;;;;15.49;100.00;99596.70;105750;1256;72380;-44
2023/07/28 06:27:08;;;;;;;1.90;1.80;;;;;;;15.51;100.00;99599.71;105770;1259;61971;-44
2023/07/28 06:29:37;;;;;;;4.60;1.60;;;;;;;15.54;100.00;99594.40;105806;1257;60460;-44
2023/07/28 06:32:05;;;;;;;1.70;1.50;;;;;;;15.60;100.00;99599.48;105778;1253;73919;-44
2023/07/28 06:34:32;;;;;;;2.50;1.70;;;;;;;15.62;100.00;99603.17;105752;1255;65377;-45
2023/07/28 06:37:00;;;;;;;2.40;1.70;;;;;;;15.61;100.00;99602.73;105892;1256;72634;-43
2023/07/28 06:39:27;;;;;;;3.00;1.60;;;;;;;15.62;100.00;99608.92;105886;1256;61719;-44
2023/07/28 06:41:54;;;;;;;5.30;1.70;;;;;;;15.65;100.00;99612.06;105832;1254;60492;-44
2023/07/28 06:44:21;;;;;;;1.40;1.30;;;;;;;15.67;100.00;99615.78;105765;1255;73826;-44
2023/07/28 06:46:48;;;;;;;1.80;1.20;;;;;;;15.71;100.00;99614.72;105895;1254;65371;-43
2023/07/28 06:49:16;;;;;;;1.20;1.10;;;;;;;15.73;100.00;99622.09;105873;1257;72656;-45
2023/07/28 06:51:46;;;;;;;1.50;1.40;;;;;;;15.73;100.00;99617.91;105878;1257;60603;-44
2023/07/28 06:54:12;;;;;;;2.20;1.40;;;;;;;15.75;100.00;99618.84;105882;1254;60822;-44
2023/07/28 06:56:41;;;;;;;1.10;1.10;;;;;;;15.78;100.00;99624.08;105902;1256;73884;-44
2023/07/28 06:59:08;;;;;;;3.10;1.10;;;;;;;15.82;100.00;99629.29;105923;1257;65401;-45
2023/07/28 07:01:45;;;;;;;1.50;1.30;;;;;;;15.85;100.00;99636.59;105994;1257;72749;-44
2023/07/28 07:04:12;;;;;;;1.60;1.10;;;;;;;15.84;100.00;99635.61;105853;1256;61924;-44
2023/07/28 07:06:41;;;;;;;1.10;1.10;;;;;;;15.87;100.00;99639.61;105861;1254;60671;-44
2023/07/28 07:09:08;;;;;;;1.10;1.00;;;;;;;15.90;100.00;99636.17;105730;1257;73820;-44
2023/07/28 07:11:36;;;;;;;3.60;1.10;;;;;;;15.92;100.00;99642.88;105819;1254;65162;-44
2023/07/28 07:14:04;;;;;;;1.10;0.90;;;;;;;15.97;100.00;99645.92;105836;1257;71381;-44
2023/07/28 07:16:34;;;;;;;2.00;1.10;;;;;;;16.01;100.00;99648.27;105867;1255;61804;-44
2023/07/28 07:19:00;;;;;;;2.00;0.90;;;;;;;16.03;100.00;99646.61;105911;1257;60360;-44
2023/07/28 07:21:28;;;;;;;3.00;0.90;;;;;;;16.06;100.00;99649.61;105822;1257;73839;-45
2023/07/28 07:23:54;;;;;;;0.80;0.80;;;;;;;16.06;100.00;99652.19;105889;1258;64327;-45
2023/07/28 07:26:28;;;;;;;1.00;0.80;;;;;;;16.07;100.00;99653.54;105850;1257;72597;-45
2023/07/28 07:28:55;;;;;;;1.60;0.60;;;;;;;16.05;100.00;99652.76;105846;1257;61950;-45
2023/07/28 07:31:21;;;;;;;1.10;0.90;;;;;;;16.04;100.00;99656.65;105906;1254;60412;-43
2023/07/28 07:33:49;;;;;;;0.80;0.60;;;;;;;16.02;100.00;99655.36;105934;1257;73674;-46
2023/07/28 07:36:17;;;;;;;0.60;0.60;;;;;;;16.02;100.00;99652.75;105862;1252;65487;-44
2023/07/28 07:38:46;;;;;;;1.40;0.60;;;;;;;16.04;100.00;99651.95;105876;1257;72708;-44
2023/07/28 07:41:19;;;;;;;0.90;0.60;;;;;;;16.07;100.00;99652.47;105857;1254;61951;-44
2023/07/28 07:43:47;;;;;;;0.70;0.60;;;;;;;16.13;100.00;99656.91;105849;1254;60442;-45
2023/07/28 07:46:15;;;;;;;1.20;0.70;;;;;;;16.14;100.00;99655.10;105876;1255;73680;-45
2023/07/28 07:48:42;;;;;;;1.10;0.80;;;;;;;16.20;100.00;99659.81;105930;1256;66627;-45
2023/07/28 07:51:08;;;;;;;0.80;0.80;;;;;;;16.28;100.00;99662.16;105845;1256;72718;-45
2023/07/28 07:53:36;;;;;;;1.40;0.90;;;;;;;16.29;100.00;99666.63;105817;1254;61953;-43
2023/07/28 07:56:03;;;;;;;0.80;0.80;;;;;;;16.29;100.00;99669.08;105735;1255;60464;-51
2023/07/28 07:58:31;;;;;;;1.00;1.00;;;;;;;16.34;100.00;99671.43;105683;1257;73726;-43
2023/07/28 08:00:57;;;;;;;1.00;1.00;;;;;;;16.39;100.00;99675.85;105733;1257;65374;-46
2023/07/28 08:03:25;;;;;;;1.90;1.50;;;;;;;16.46;100.00;99682.63;105689;1255;72680;-45
2023/07/28 08:05:51;;;;;;;2.40;1.30;;;;;;;16.52;100.00;99673.52;105702;1257;62011;-44
2023/07/28 08:08:19;;;;;;;2.60;1.30;;;;;;;16.60;100.00;99670.85;105700;1255;60448;-45
2023/07/28 08:10:47;;;;;;;2.50;1.40;;;;;;;16.63;100.00;99669.48;105789;1258;73601;-44
2023/07/28 08:13:14;;;;;;;1.60;1.50;;;;;;;16.67;100.00;99674.64;105875;1256;65354;-44
2023/07/28 08:15:45;;;;;;;1.80;1.70;;;;;;;16.73;100.00;99685.65;105888;1257;72603;-44
2023/07/28 08:18:15;;;;;;;2.70;1.40;;;;;;;16.75;100.00;99692.88;105877;1254;61951;-44
2023/07/28 08:20:41;;;;;;;2.30;1.60;;;;;;;16.74;100.00;99704.91;105950;1254;60447;-45
2023/07/28 08:23:08;;;;;;;3.10;2.50;;;;;;;16.72;100.00;99715.99;105848;1256;72660;-44
2023/07/28 08:25:36;;;;;;;3.10;1.50;;;;;;;16.66;100.00;99722.09;105897;1254;65514;-45
2023/07/28 08:28:03;;;;;;;1.50;1.40;;;;;;;16.66;100.00;99730.80;105870;1262;72610;-44
2023/07/28 08:30:31;;;;;;;1.60;1.50;;;;;;;16.71;100.00;99735.21;105897;1256;61804;-44
2023/07/28 08:32:59;;;;;;;2.50;2.30;;;;;;;16.77;100.00;99736.98;105869;1254;60548;-43
2023/07/28 08:35:26;;;;;;;2.10;2.00;;;;;;;16.84;100.00;99743.07;105816;1257;73754;-44
2023/07/28 08:37:53;;;;;;;1.70;1.60;;;;;;;16.89;100.00;99749.91;105774;1254;65442;-44
2023/07/28 08:40:20;;;;;;;1.90;1.50;;;;;;;17.00;100.00;99748.64;105723;1258;72797;-45
2023/07/28 08:42:47;;;;;;;1.90;1.80;;;;;;;17.08;100.00;99749.60;105707;1257;60968;-44
2023/07/28 08:45:14;;;;;;;1.80;1.70;;;;;;;17.10;100.00;99753.48;105740;1257;61669;-44
2023/07/28 08:47:41;;;;;;;1.80;1.70;;;;;;;17.13;100.00;99756.95;105723;1255;73809;-44
2023/07/28 08:50:08;;;;;;;2.20;2.10;;;;;;;17.14;100.00;99774.32;105676;1254;65439;-44
2023/07/28 08:52:35;;;;;;;3.30;2.20;;;;;;;17.16;100.00;99795.65;105870;1255;72634;-46
2023/07/28 08:55:03;;;;;;;2.50;2.30;;;;;;;17.18;100.00;99816.29;105848;1256;61672;-44
2023/07/28 08:57:30;;;;;;;2.40;2.10;;;;;;;17.12;100.00;99832.31;105881;1254;60432;-44
2023/07/28 08:59:57;;;;;;;7.00;2.70;;;;;;;17.09;100.00;99851.31;105897;1256;73796;-44
2023/07/28 09:02:25;;;;;;;3.20;3.00;;;;;;;16.99;100.00;99868.55;105928;1252;65749;-45
2023/07/28 09:04:51;;;;;;;6.10;2.60;;;;;;;16.93;100.00;99878.65;105879;1256;71212;-44
2023/07/28 09:07:19;;;;;;;3.30;2.70;;;;;;;16.90;100.00;99880.36;105862;1254;60943;-45
2023/07/28 09:09:46;;;;;;;3.80;2.90;;;;;;;16.90;100.00;99884.71;105980;1254;60468;-44
2023/07/28 09:12:13;;;;;;;2.50;2.40;;;;;;;16.88;100.00;99892.00;105841;1258;74019;-45
2023/07/28 09:14:41;;;;;;;2.80;2.60;;;;;;;16.91;100.00;99897.38;105900;1256;65422;-44
2023/07/28 09:17:09;;;;;;;2.70;2.50;;;;;;;16.99;100.00;99893.70;105668;1254;72745;-44
2023/07/28 09:19:52;;;;;;;4.00;2.60;;;;;;;17.08;100.00;99893.36;105868;1253;61916;-44
2023/07/28 09:22:20;;;;;;;2.50;2.40;;;;;;;17.19;100.00;99901.33;105845;1253;60555;-45
2023/07/28 09:24:48;;;;;;;4.60;2.70;;;;;;;17.15;100.00;99913.91;105770;1257;73814;-44
2023/07/28 09:27:26;;;;;;;2.60;2.50;;;;;;;17.08;100.00;99922.81;105678;1254;65448;-44
2023/07/28 09:29:57;;;;;;;2.90;2.70;;;;;;;17.04;100.00;99930.20;105748;1253;73405;-44
2023/07/28 09:32:30;;;;;;;2.50;2.40;;;;;;;17.03;100.00;99926.77;105817;1253;62171;-45
2023/07/28 09:35:12;;;;;;;3.00;2.50;;;;;;;17.02;100.00;99928.73;105736;1253;60440;-45
2023/07/28 09:37:44;;;;;;;7.50;2.30;;;;;;;16.93;100.00;99932.30;105828;1254;72435;-43
2023/07/28 09:40:12;;;;;;;2.40;1.80;;;;;;;16.94;100.00;99936.58;105677;1265;64125;-44
2023/07/28 09:42:40;;;;;;;2.60;2.40;;;;;;;16.97;100.00;99940.31;105964;1256;72643;-43
2023/07/28 09:45:08;;;;;;;7.00;2.70;;;;;;;16.94;100.00;99939.03;105848;1255;61929;-45
2023/07/28 09:47:50;;;;;;;3.10;2.80;;;;;;;16.91;100.00;99944.26;105765;1255;60454;-44
2023/07/28 09:50:18;;;;;;;3.00;2.80;;;;;;;16.92;100.00;99958.31;105886;1255;73894;-44
2023/07/28 09:52:50;;;;;;;3.60;2.90;;;;;;;16.93;100.00;99969.41;105931;1254;65398;-44
2023/07/28 09:55:17;;;;;;;2.60;2.50;;;;;;;16.91;100.00;99982.56;105689;1254;71537;-45
2023/07/28 09:57:46;;;;;;;2.80;2.40;;;;;;;16.90;100.00;99991.00;105705;1257;61959;-45
2023/07/28 10:00:13;;;;;;;2.90;2.60;;;;;;;16.89;100.00;99998.73;105898;1254;60454;-44
2023/07/28 10:02:40;;;;;;;3.00;2.60;;;;;;;16.86;100.00;100001.19;105922;1254;72636;-44
2023/07/28 10:05:10;;;;;;;3.20;3.00;;;;;;;16.84;100.00;100008.24;105873;1254;64295;-45
2023/07/28 10:07:40;;;;;;;5.30;3.30;;;;;;;16.84;100.00;100006.86;105903;1254;72544;-47
2023/07/28 10:10:10;;;;;;;3.60;3.00;;;;;;;16.84;100.00;100007.70;105678;1257;62267;-45
2023/07/28 10:12:50;;;;;;;5.20;3.00;;;;;;;16.88;100.00;100005.95;105914;1252;60455;-45
2023/07/28 10:15:20;;;;;;;3.20;2.90;;;;;;;16.91;100.00;100006.30;105933;1252;73831;-46
2023/07/28 10:17:54;;;;;;;4.00;3.80;;;;;;;16.96;100.00;100005.02;105890;1257;65451;-46
2023/07/28 10:20:34;;;;;;;4.50;4.20;;;;;;;17.04;100.00;100012.64;105900;1254;72493;-43
2023/07/28 10:23:15;;;;;;;3.70;3.40;;;;;;;17.13;100.00;100017.92;105929;1256;62076;-45
2023/07/28 10:25:43;;;;;;;3.90;3.30;;;;;;;17.19;100.00;100031.18;105923;1254;60461;-45
2023/07/28 10:28:27;;;;;;;5.80;4.10;;;;;;;17.24;100.00;100050.48;105920;1255;73820;-45
2023/07/28 10:30:54;;;;;;;4.00;3.70;;;;;;;17.37;100.00;100070.73;105759;1257;65483;-45
2023/07/28 10:33:38;;;;;;;2.80;2.60;;;;;;;17.56;100.00;100093.59;105710;1255;72568;-45
2023/07/28 10:36:15;;;;;;;3.00;2.20;;;;;;;17.81;100.00;100122.31;105682;1257;61362;-45
2023/07/28 10:38:43;;;;;;;1.90;1.80;;;;;;;18.00;100.00;100152.71;105745;1253;60338;-45
2023/07/28 10:41:15;;;;;;;1.20;1.20;;;;;;;18.09;100.00;100187.33;105673;1256;73701;-44
2023/07/28 10:43:42;;;;;;;2.90;2.00;;;;;;;18.11;100.00;100220.92;105704;1257;65444;-45
2023/07/28 10:46:10;;;;;;;3.10;1.50;;;;;;;18.08;100.00;100235.39;105831;1254;72667;-45
2023/07/28 10:48:45;;;;;;;1.70;1.60;;;;;;;18.07;100.00;100248.73;105894;1256;60712;-45
2023/07/28 10:51:19;;;;;;;4.60;1.80;;;;;;;17.94;100.00;100242.71;105876;1254;60428;-45
2023/07/28 10:53:46;;;;;;;1.90;1.80;;;;;;;17.86;100.00;100236.52;105901;1257;73789;-45
2023/07/28 10:56:13;;;;;;;5.20;1.70;;;;;;;17.79;100.00;100225.02;105897;1252;65186;-46
2023/07/28 10:58:40;;;;;;;4.80;1.70;;;;;;;17.71;100.00;100214.63;105939;1257;72657;-45
2023/07/28 11:01:07;;;;;;;3.40;1.60;;;;;;;17.69;100.00;100228.00;105856;1257;61801;-45
2023/07/28 11:03:34;;;;;;;3.60;2.20;;;;;;;17.67;100.00;100246.08;105753;1253;60536;-45
2023/07/28 11:06:02;;;;;;;2.50;2.30;;;;;;;17.60;100.00;100257.05;106017;1256;73915;-45
2023/07/28 11:08:29;;;;;;;1.80;1.70;;;;;;;17.56;100.00;100255.17;105741;1257;65583;-46
2023/07/28 11:10:56;;;;;;;2.20;2.10;;;;;;;17.56;100.00;100258.11;105866;1254;72595;-46
2023/07/28 11:13:25;;;;;;;2.50;2.00;;;;;;;17.66;100.00;100262.48;105881;1253;60591;-44
2023/07/28 11:16:08;;;;;;;7.50;2.20;;;;;;;17.84;100.00;100267.35;105812;1257;60322;-44
2023/07/28 11:18:36;;;;;;;2.60;1.80;;;;;;;17.92;100.00;100267.61;105916;1256;71674;-45
2023/07/28 11:21:03;;;;;;;4.40;2.00;;;;;;;17.97;100.00;100254.63;105899;1256;64560;-45
2023/07/28 11:23:30;;;;;;;4.20;2.00;;;;;;;18.05;100.00;100240.45;105885;1253;72714;-45